createdAt,value
2023-01-08T00:03:42.759Z,9.80
2023-01-08T00:08:45.784Z,9.86
2023-01-08T00:13:47.178Z,9.87
2023-01-08T00:18:48.900Z,9.82
2023-01-08T00:23:50.305Z,9.86
2023-01-08T00:28:52.322Z,9.82
2023-01-08T00:33:53.992Z,9.96
2023-01-08T00:38:55.491Z,9.96
2023-01-08T00:43:57.200Z,9.91
2023-01-08T00:48:58.582Z,9.97
2023-01-08T00:54:01.485Z,9.97
2023-01-08T00:59:02.951Z,10.04
2023-01-08T01:04:04.592Z,10.05
2023-01-08T01:09:06.007Z,10.05
2023-01-08T01:14:07.746Z,10.08
2023-01-08T01:19:09.407Z,10.09
2023-01-08T01:24:13.312Z,10.10
2023-01-08T01:29:14.782Z,10.15
2023-01-08T01:34:17.450Z,10.17
2023-01-08T01:39:19.902Z,10.21
2023-01-08T01:44:39.453Z,10.29
2023-01-08T01:49:43.820Z,10.32
2023-01-08T01:54:45.685Z,10.34
2023-01-08T01:59:48.474Z,10.35
2023-01-08T02:04:50.457Z,10.37
2023-01-08T02:10:04.558Z,10.37
2023-01-08T02:15:30.474Z,10.38
2023-01-08T02:20:39.534Z,10.40
2023-01-08T02:26:03.311Z,10.36
2023-01-08T02:31:07.294Z,10.34
2023-01-08T02:36:23.019Z,10.32
2023-01-08T02:41:36.502Z,10.34
2023-01-08T02:46:41.277Z,10.35
2023-01-08T02:51:54.994Z,10.12
2023-01-08T02:57:04.199Z,10.12
2023-01-08T03:02:06.844Z,10.03
2023-01-08T03:07:10.436Z,10.05
2023-01-08T03:12:33.966Z,10.08
2023-01-08T03:17:48.520Z,9.91
2023-01-08T03:22:55.314Z,9.90
2023-01-08T03:28:04.383Z,9.89
2023-01-08T03:33:10.587Z,9.86
2023-01-08T03:38:20.922Z,9.73
2023-01-08T03:43:22.677Z,9.77
2023-01-08T03:48:26.613Z,9.78
2023-01-08T03:53:31.068Z,9.86
2023-01-08T03:58:33.838Z,9.89
2023-01-08T04:03:35.308Z,9.85
2023-01-08T04:08:36.732Z,9.89
2023-01-08T04:13:38.270Z,9.95
2023-01-08T04:18:39.648Z,9.86
2023-01-08T04:23:42.043Z,9.81
2023-01-08T04:28:43.363Z,9.71
2023-01-08T04:33:44.714Z,9.72
2023-01-08T04:38:46.315Z,9.65
2023-01-08T04:43:47.875Z,9.69
2023-01-08T04:48:50.474Z,9.63
2023-01-08T04:53:52.039Z,9.58
2023-01-08T04:58:53.532Z,9.63
2023-01-08T05:04:02.586Z,9.69
2023-01-08T05:09:04.074Z,9.68
2023-01-08T05:14:05.681Z,9.66
2023-01-08T05:19:07.233Z,9.69
2023-01-08T05:24:11.743Z,9.73
2023-01-08T05:29:15.562Z,9.73
2023-01-08T05:34:17.367Z,9.59
2023-01-08T05:39:18.726Z,9.68
2023-01-08T05:44:20.109Z,9.68
2023-01-08T05:49:24.509Z,9.63
2023-01-08T05:54:26.078Z,9.70
2023-01-08T05:59:27.570Z,9.59
2023-01-08T06:04:29.024Z,9.48
2023-01-08T06:09:30.414Z,9.48
2023-01-08T06:14:31.906Z,9.44
2023-01-08T06:19:33.486Z,9.36
2023-01-08T06:24:34.904Z,9.36
2023-01-08T06:29:36.392Z,9.40
2023-01-08T06:34:37.863Z,9.34
2023-01-08T06:39:39.286Z,9.30
2023-01-08T06:44:40.649Z,9.35
2023-01-08T06:49:42.016Z,9.35
2023-01-08T06:54:46.190Z,9.33
2023-01-08T06:59:47.720Z,9.42
2023-01-08T07:04:49.043Z,9.33
2023-01-08T07:09:50.693Z,9.35
2023-01-08T07:14:52.051Z,9.33
2023-01-08T07:19:53.507Z,9.34
2023-01-08T07:24:55.459Z,9.33
2023-01-08T07:29:57.295Z,9.27
2023-01-08T07:34:59.638Z,9.18
2023-01-08T07:40:01.070Z,9.29
2023-01-08T07:45:02.468Z,9.30
2023-01-08T07:50:04.070Z,9.18
2023-01-08T07:55:06.360Z,9.17
2023-01-08T08:00:08.716Z,9.14
2023-01-08T08:05:10.282Z,9.24
2023-01-08T08:10:12.214Z,9.28
2023-01-08T08:15:13.944Z,9.11
2023-01-08T08:20:15.730Z,9.18
2023-01-08T08:25:17.559Z,9.26
2023-01-08T08:30:19.166Z,9.27
2023-01-08T08:35:20.992Z,9.27
2023-01-08T08:40:22.392Z,9.14
2023-01-08T08:45:24.214Z,9.09
2023-01-08T08:50:26.418Z,9.04
2023-01-08T08:55:28.823Z,9.15
2023-01-08T09:00:30.418Z,9.19
2023-01-08T09:05:34.979Z,9.18
2023-01-08T09:10:38.332Z,9.18
2023-01-08T09:15:41.099Z,9.14
2023-01-08T09:20:43.086Z,9.17
2023-01-08T09:25:44.467Z,9.20
2023-01-08T09:30:46.833Z,9.27
2023-01-08T09:35:48.433Z,9.35
2023-01-08T09:41:01.957Z,9.40
2023-01-08T09:46:06.113Z,9.32
2023-01-08T09:51:13.046Z,9.34
2023-01-08T09:56:18.646Z,9.36
2023-01-08T10:01:24.725Z,9.32
2023-01-08T10:06:26.342Z,9.30
2023-01-08T10:11:35.384Z,9.35
2023-01-08T10:16:40.378Z,9.42
2023-01-08T10:21:42.291Z,9.38
2023-01-08T10:26:43.901Z,9.37
2023-01-08T10:31:55.342Z,9.42
2023-01-08T10:36:56.934Z,9.42
2023-01-08T10:42:05.694Z,9.59
2023-01-08T10:47:07.430Z,9.62
2023-01-08T10:52:32.943Z,9.53
2023-01-08T10:57:34.793Z,9.75
2023-01-08T11:02:39.810Z,10.02
2023-01-08T11:07:42.046Z,10.30
2023-01-08T11:12:44.631Z,10.79
2023-01-08T11:17:46.780Z,11.23
2023-01-08T11:22:50.486Z,14.63
2023-01-08T11:27:53.057Z,18.38
2023-01-08T11:33:18.460Z,20.13
2023-01-08T11:38:19.862Z,16.49
2023-01-08T11:43:27.867Z,14.74
2023-01-08T11:48:57.306Z,13.67
2023-01-08T11:54:38.448Z,12.80
2023-01-08T12:00:02.253Z,12.21
2023-01-08T12:05:24.993Z,11.82
2023-01-08T12:10:32.717Z,11.76
2023-01-08T12:16:07.607Z,11.32
2023-01-08T12:21:14.493Z,11.29
2023-01-08T12:26:34.298Z,11.20
2023-01-08T12:32:01.997Z,11.11
2023-01-08T12:37:31.693Z,10.95
2023-01-08T12:42:36.452Z,10.95
2023-01-08T12:47:40.150Z,10.99
2023-01-08T12:52:54.016Z,11.11
2023-01-08T12:58:18.807Z,11.27
2023-01-08T13:03:25.482Z,11.19
2023-01-08T13:08:35.025Z,11.18
2023-01-08T13:13:44.344Z,10.91
2023-01-08T13:19:00.591Z,10.70
2023-01-08T13:24:04.997Z,10.72
2023-01-08T13:29:26.942Z,10.72
2023-01-08T13:34:39.896Z,10.65
2023-01-08T13:39:41.420Z,10.60
2023-01-08T13:45:02.982Z,10.50
2023-01-08T13:50:14.605Z,10.55
2023-01-08T13:55:41.740Z,10.50
2023-01-08T14:00:43.228Z,10.43
2023-01-08T14:05:44.677Z,10.40
2023-01-08T14:10:46.601Z,10.36
2023-01-08T14:15:48.850Z,10.42
2023-01-08T14:20:51.396Z,10.42
2023-01-08T14:25:53.856Z,10.57
2023-01-08T14:30:57.429Z,10.71
2023-01-08T14:36:00.660Z,10.55
2023-01-08T14:41:09.390Z,10.58
2023-01-08T14:46:25.086Z,10.52
2023-01-08T14:51:31.141Z,10.50
2023-01-08T14:56:34.812Z,10.35
2023-01-08T15:01:37.055Z,10.29
2023-01-08T15:06:38.612Z,10.41
2023-01-08T15:11:52.460Z,10.33
2023-01-08T15:16:57.819Z,10.17
2023-01-08T15:22:01.534Z,10.12
2023-01-08T15:27:14.307Z,10.04
2023-01-08T15:32:15.793Z,10.02
2023-01-08T15:37:17.428Z,9.88
2023-01-08T15:42:48.619Z,9.79
2023-01-08T15:47:50.054Z,9.72
2023-01-08T15:52:51.645Z,9.73
2023-01-08T15:57:53.381Z,9.74
2023-01-08T16:02:55.595Z,9.71
2023-01-08T16:07:57.305Z,9.61
2023-01-08T16:13:00.432Z,9.57
2023-01-08T16:18:02.069Z,9.54
2023-01-08T16:23:03.494Z,9.62
2023-01-08T16:28:05.613Z,9.68
2023-01-08T16:33:07.037Z,9.73
2023-01-08T16:38:11.012Z,9.65
2023-01-08T16:43:12.740Z,9.64
2023-01-08T16:48:15.066Z,9.62
2023-01-08T16:53:17.812Z,9.60
2023-01-08T16:58:19.401Z,9.57
2023-01-08T17:03:22.455Z,9.46
2023-01-08T17:08:27.585Z,9.51
2023-01-08T17:13:28.905Z,9.44
2023-01-08T17:18:30.408Z,9.44
2023-01-08T17:23:33.395Z,9.51
2023-01-08T17:28:35.655Z,9.66
2023-01-08T17:33:38.103Z,9.66
2023-01-08T17:38:39.987Z,9.65
2023-01-08T17:43:41.727Z,9.70
2023-01-08T17:48:45.156Z,9.77
2023-01-08T17:53:47.092Z,9.75
2023-01-08T17:58:50.403Z,9.76
2023-01-08T18:03:52.663Z,9.80
2023-01-08T18:08:54.153Z,9.83
2023-01-08T18:14:00.589Z,9.80
2023-01-08T18:19:02.190Z,9.76
2023-01-08T18:24:03.967Z,9.64
2023-01-08T18:29:08.473Z,9.58
2023-01-08T18:34:13.027Z,9.59
2023-01-08T18:39:15.149Z,9.53
2023-01-08T18:44:16.704Z,9.48
2023-01-08T18:49:18.152Z,9.48
2023-01-08T18:54:21.213Z,9.50
2023-01-08T18:59:24.397Z,9.58
2023-01-08T19:04:26.190Z,9.62
2023-01-08T19:09:27.822Z,9.71
2023-01-08T19:14:29.502Z,9.76
2023-01-08T19:19:31.061Z,9.77
2023-01-08T19:24:37.450Z,9.73
2023-01-08T19:29:38.907Z,9.79
2023-01-08T19:34:41.059Z,9.80
2023-01-08T19:39:42.406Z,9.82
2023-01-08T19:44:44.288Z,9.83
2023-01-08T19:49:48.864Z,9.85
2023-01-08T19:54:51.383Z,9.82
2023-01-08T19:59:52.767Z,9.75
2023-01-08T20:04:54.089Z,9.78
2023-01-08T20:09:56.502Z,9.78
2023-01-08T20:14:58.370Z,9.74
2023-01-08T20:20:00.039Z,9.66
2023-01-08T20:25:04.709Z,9.62
2023-01-08T20:30:08.465Z,9.63
2023-01-08T20:35:10.065Z,9.70
2023-01-08T20:40:11.651Z,9.69
2023-01-08T20:45:14.615Z,9.71
2023-01-08T20:50:20.344Z,9.65
2023-01-08T20:55:22.091Z,9.58
2023-01-08T21:00:26.408Z,9.60
2023-01-08T21:05:28.540Z,9.66
2023-01-08T21:10:30.200Z,9.68
2023-01-08T21:15:39.667Z,9.70
2023-01-08T21:20:43.177Z,9.71
2023-01-08T21:25:45.163Z,9.70
2023-01-08T21:30:46.788Z,9.68
2023-01-08T21:35:48.825Z,9.73
2023-01-08T21:41:00.479Z,9.76
2023-01-08T21:46:03.207Z,9.74
2023-01-08T21:51:04.937Z,9.77
2023-01-08T21:56:07.742Z,9.79
2023-01-08T22:01:12.049Z,9.75
2023-01-08T22:06:13.651Z,9.71
2023-01-08T22:11:16.072Z,9.74
2023-01-08T22:16:17.495Z,9.75
2023-01-08T22:21:18.969Z,9.72
2023-01-08T22:26:20.547Z,9.67
2023-01-08T22:31:24.337Z,9.68
2023-01-08T22:36:27.166Z,9.67
2023-01-08T22:41:28.601Z,9.67
2023-01-08T22:46:32.492Z,9.59
2023-01-08T22:51:34.282Z,9.59
2023-01-08T22:56:35.687Z,9.59
2023-01-08T23:01:37.146Z,9.55
2023-01-08T23:06:41.637Z,9.60
2023-01-08T23:11:43.072Z,9.55
2023-01-08T23:16:46.989Z,9.46
2023-01-08T23:21:50.878Z,9.48
2023-01-08T23:26:52.439Z,9.46
2023-01-08T23:31:56.618Z,9.44
2023-01-08T23:36:58.173Z,9.37
2023-01-08T23:41:59.644Z,9.26
2023-01-08T23:47:01.155Z,9.22
2023-01-08T23:52:03.085Z,9.19
2023-01-08T23:57:06.998Z,9.14
